Wilmington, North Carolina
Current Conditions -  °F | °C
As of 11:38 AM on Monday 24 Nov 2014 (Local Time) from KILM Reporting Station
Light Rain Light Rain  
Wind Chill: 70°   Ceiling: 1400
Heat Index: 70°   Visibility: 6mi
Dew Point: 69°   Wind: 9mph
Humidity: 97%   Direction: 210°SSW
Pressure: 29.88"   Gusts: NA
Location:  34.24°N, 77.94°W
Report Text: KILM 241638Z 21008KT 6SM -RA BR FEW009 BKN014 OVC041 21/21 A2988 RMK AO2 RAB16 P0004 T02110206
Loading
Personal Weather Stations






























Interactive Weather Map New forecast layout! Learn more

10-Day Weather Forecast

Advertisements
Track Severe Weather on mobile